sensor_id;sensor_type;location;lat;lon;timestamp;P1;durP1;ratioP1;P2;durP2;ratioP2
20034;SDS011;10178;48.034;9.800;2023-02-21T00:01:46;10.13;;;6.35;;
20034;SDS011;10178;48.034;9.800;2023-02-21T00:04:30;14.95;;;9.70;;
20034;SDS011;10178;48.034;9.800;2023-02-21T00:07:14;13.13;;;8.77;;
20034;SDS011;10178;48.034;9.800;2023-02-21T00:09:58;13.98;;;9.70;;
20034;SDS011;10178;48.034;9.800;2023-02-21T00:12:42;17.30;;;10.40;;
20034;SDS011;10178;48.034;9.800;2023-02-21T00:15:26;15.48;;;10.15;;
20034;SDS011;10178;48.034;9.800;2023-02-21T00:18:10;13.77;;;10.02;;
20034;SDS011;10178;48.034;9.800;2023-02-21T00:20:54;18.88;;;10.68;;
20034;SDS011;10178;48.034;9.800;2023-02-21T00:23:38;15.63;;;10.93;;
20034;SDS011;10178;48.034;9.800;2023-02-21T00:26:22;10.43;;;7.90;;
20034;SDS011;10178;48.034;9.800;2023-02-21T00:29:06;12.90;;;8.57;;
20034;SDS011;10178;48.034;9.800;2023-02-21T00:31:51;16.63;;;9.90;;
20034;SDS011;10178;48.034;9.800;2023-02-21T00:34:36;11.13;;;7.43;;
20034;SDS011;10178;48.034;9.800;2023-02-21T00:37:20;11.52;;;6.93;;
20034;SDS011;10178;48.034;9.800;2023-02-21T00:40:05;14.57;;;9.63;;
20034;SDS011;10178;48.034;9.800;2023-02-21T00:42:49;13.32;;;7.30;;
20034;SDS011;10178;48.034;9.800;2023-02-21T00:45:33;12.18;;;8.23;;
20034;SDS011;10178;48.034;9.800;2023-02-21T00:48:21;13.65;;;9.32;;
20034;SDS011;10178;48.034;9.800;2023-02-21T00:51:06;11.18;;;7.72;;
20034;SDS011;10178;48.034;9.800;2023-02-21T00:53:50;9.60;;;6.32;;
20034;SDS011;10178;48.034;9.800;2023-02-21T00:56:35;8.70;;;6.18;;
20034;SDS011;10178;48.034;9.800;2023-02-21T00:59:19;8.95;;;6.65;;
20034;SDS011;10178;48.034;9.800;2023-02-21T01:02:04;8.75;;;6.05;;
20034;SDS011;10178;48.034;9.800;2023-02-21T01:04:48;8.13;;;6.35;;
20034;SDS011;10178;48.034;9.800;2023-02-21T01:07:32;9.90;;;6.47;;
20034;SDS011;10178;48.034;9.800;2023-02-21T01:10:17;13.15;;;7.78;;
20034;SDS011;10178;48.034;9.800;2023-02-21T01:13:01;13.27;;;9.02;;
20034;SDS011;10178;48.034;9.800;2023-02-21T01:15:45;17.80;;;9.82;;
20034;SDS011;10178;48.034;9.800;2023-02-21T01:18:29;13.95;;;9.40;;
20034;SDS011;10178;48.034;9.800;2023-02-21T01:21:14;11.40;;;7.70;;
20034;SDS011;10178;48.034;9.800;2023-02-21T01:24:00;11.15;;;7.50;;
20034;SDS011;10178;48.034;9.800;2023-02-21T01:26:44;9.63;;;6.70;;
20034;SDS011;10178;48.034;9.800;2023-02-21T01:29:28;8.75;;;6.40;;
20034;SDS011;10178;48.034;9.800;2023-02-21T01:32:13;17.25;;;9.68;;
20034;SDS011;10178;48.034;9.800;2023-02-21T01:34:57;9.07;;;6.87;;
20034;SDS011;10178;48.034;9.800;2023-02-21T01:37:41;14.90;;;9.52;;
20034;SDS011;10178;48.034;9.800;2023-02-21T01:40:25;9.20;;;6.47;;
20034;SDS011;10178;48.034;9.800;2023-02-21T01:43:19;9.80;;;6.80;;
20034;SDS011;10178;48.034;9.800;2023-02-21T01:46:06;11.98;;;9.15;;
20034;SDS011;10178;48.034;9.800;2023-02-21T01:49:00;13.70;;;9.35;;
20034;SDS011;10178;48.034;9.800;2023-02-21T01:51:48;13.35;;;7.88;;
20034;SDS011;10178;48.034;9.800;2023-02-21T01:54:39;16.35;;;10.02;;
20034;SDS011;10178;48.034;9.800;2023-02-21T01:57:26;10.30;;;7.30;;
20034;SDS011;10178;48.034;9.800;2023-02-21T02:00:12;8.52;;;6.70;;
20034;SDS011;10178;48.034;9.800;2023-02-21T02:03:00;8.25;;;6.20;;
20034;SDS011;10178;48.034;9.800;2023-02-21T02:05:51;10.20;;;6.10;;
20034;SDS011;10178;48.034;9.800;2023-02-21T02:08:45;9.15;;;6.60;;
20034;SDS011;10178;48.034;9.800;2023-02-21T02:37:22;7.10;;;5.68;;
20034;SDS011;10178;48.034;9.800;2023-02-21T02:47:38;12.93;;;6.47;;
20034;SDS011;10178;48.034;9.800;2023-02-21T02:50:07;9.88;;;6.32;;
20034;SDS011;10178;48.034;9.800;2023-02-21T02:52:34;9.65;;;6.20;;
20034;SDS011;10178;48.034;9.800;2023-02-21T02:55:18;11.30;;;6.70;;
20034;SDS011;10178;48.034;9.800;2023-02-21T02:57:53;7.65;;;6.03;;
20034;SDS011;10178;48.034;9.800;2023-02-21T03:00:19;7.53;;;5.50;;
20034;SDS011;10178;48.034;9.800;2023-02-21T03:02:51;8.15;;;6.10;;
20034;SDS011;10178;48.034;9.800;2023-02-21T03:08:37;9.03;;;6.07;;
20034;SDS011;10178;48.034;9.800;2023-02-21T03:11:17;9.30;;;5.78;;
20034;SDS011;10178;48.034;9.800;2023-02-21T03:13:47;8.93;;;6.78;;
20034;SDS011;10178;48.034;9.800;2023-02-21T03:16:53;8.45;;;6.50;;
20034;SDS011;10178;48.034;9.800;2023-02-21T03:19:26;9.48;;;7.32;;
20034;SDS011;10178;48.034;9.800;2023-02-21T03:21:57;8.38;;;6.47;;
20034;SDS011;10178;48.034;9.800;2023-02-21T03:24:37;11.40;;;6.13;;
20034;SDS011;10178;48.034;9.800;2023-02-21T03:27:06;7.75;;;6.00;;
20034;SDS011;10178;48.034;9.800;2023-02-21T03:29:33;10.60;;;6.20;;
20034;SDS011;10178;48.034;9.800;2023-02-21T03:32:42;9.88;;;6.22;;
20034;SDS011;10178;48.034;9.800;2023-02-21T03:34:50;9.95;;;6.15;;
20034;SDS011;10178;48.034;9.800;2023-02-21T03:37:20;10.02;;;6.28;;
20034;SDS011;10178;48.034;9.800;2023-02-21T03:39:57;8.45;;;5.57;;
20034;SDS011;10178;48.034;9.800;2023-02-21T03:42:22;7.93;;;5.85;;
20034;SDS011;10178;48.034;9.800;2023-02-21T03:44:48;10.38;;;6.10;;
20034;SDS011;10178;48.034;9.800;2023-02-21T03:47:13;7.93;;;6.10;;
20034;SDS011;10178;48.034;9.800;2023-02-21T03:49:39;9.68;;;5.85;;
20034;SDS011;10178;48.034;9.800;2023-02-21T03:52:05;6.80;;;5.07;;
20034;SDS011;10178;48.034;9.800;2023-02-21T03:54:30;7.30;;;5.63;;
20034;SDS011;10178;48.034;9.800;2023-02-21T03:56:56;10.17;;;5.73;;
20034;SDS011;10178;48.034;9.800;2023-02-21T03:59:22;6.35;;;5.30;;
20034;SDS011;10178;48.034;9.800;2023-02-21T04:01:47;6.45;;;5.28;;
20034;SDS011;10178;48.034;9.800;2023-02-21T04:04:13;5.65;;;4.90;;
20034;SDS011;10178;48.034;9.800;2023-02-21T04:06:38;7.10;;;5.15;;
20034;SDS011;10178;48.034;9.800;2023-02-21T04:09:04;7.82;;;5.13;;
20034;SDS011;10178;48.034;9.800;2023-02-21T04:11:29;6.90;;;5.47;;
20034;SDS011;10178;48.034;9.800;2023-02-21T04:13:56;8.32;;;5.90;;
20034;SDS011;10178;48.034;9.800;2023-02-21T04:16:21;7.72;;;5.28;;
20034;SDS011;10178;48.034;9.800;2023-02-21T04:18:47;8.02;;;5.65;;
20034;SDS011;10178;48.034;9.800;2023-02-21T04:21:16;10.30;;;6.68;;
20034;SDS011;10178;48.034;9.800;2023-02-21T04:23:42;8.77;;;5.97;;
20034;SDS011;10178;48.034;9.800;2023-02-21T04:26:08;8.35;;;5.57;;
20034;SDS011;10178;48.034;9.800;2023-02-21T04:28:33;9.15;;;5.50;;
20034;SDS011;10178;48.034;9.800;2023-02-21T04:30:59;9.52;;;5.47;;
20034;SDS011;10178;48.034;9.800;2023-02-21T04:33:24;7.35;;;5.93;;
20034;SDS011;10178;48.034;9.800;2023-02-21T04:35:50;10.00;;;6.57;;
20034;SDS011;10178;48.034;9.800;2023-02-21T04:38:16;6.72;;;5.50;;
20034;SDS011;10178;48.034;9.800;2023-02-21T04:40:42;7.80;;;5.57;;
20034;SDS011;10178;48.034;9.800;2023-02-21T04:43:07;8.97;;;5.80;;
20034;SDS011;10178;48.034;9.800;2023-02-21T04:45:33;7.45;;;5.40;;
20034;SDS011;10178;48.034;9.800;2023-02-21T04:47:58;8.30;;;5.35;;
20034;SDS011;10178;48.034;9.800;2023-02-21T04:50:24;12.27;;;7.17;;
20034;SDS011;10178;48.034;9.800;2023-02-21T04:52:49;8.50;;;6.37;;
20034;SDS011;10178;48.034;9.800;2023-02-21T04:55:15;11.97;;;6.53;;
20034;SDS011;10178;48.034;9.800;2023-02-21T04:57:41;8.20;;;6.13;;
20034;SDS011;10178;48.034;9.800;2023-02-21T05:00:06;8.40;;;6.10;;
20034;SDS011;10178;48.034;9.800;2023-02-21T05:02:32;12.48;;;7.68;;
20034;SDS011;10178;48.034;9.800;2023-02-21T05:04:58;11.20;;;8.07;;
20034;SDS011;10178;48.034;9.800;2023-02-21T05:07:24;13.57;;;8.63;;
20034;SDS011;10178;48.034;9.800;2023-02-21T05:09:50;11.87;;;7.97;;
20034;SDS011;10178;48.034;9.800;2023-02-21T05:12:16;11.33;;;6.97;;
20034;SDS011;10178;48.034;9.800;2023-02-21T05:14:41;13.03;;;8.40;;
20034;SDS011;10178;48.034;9.800;2023-02-21T05:17:07;9.65;;;7.25;;
20034;SDS011;10178;48.034;9.800;2023-02-21T05:19:33;10.63;;;7.83;;
20034;SDS011;10178;48.034;9.800;2023-02-21T05:22:00;7.80;;;5.90;;
20034;SDS011;10178;48.034;9.800;2023-02-21T05:24:28;12.90;;;8.50;;
20034;SDS011;10178;48.034;9.800;2023-02-21T05:26:55;10.43;;;6.97;;
20034;SDS011;10178;48.034;9.800;2023-02-21T05:29:21;13.03;;;8.63;;
20034;SDS011;10178;48.034;9.800;2023-02-21T05:31:48;12.30;;;9.40;;
20034;SDS011;10178;48.034;9.800;2023-02-21T05:34:14;12.07;;;8.23;;
20034;SDS011;10178;48.034;9.800;2023-02-21T05:36:40;12.47;;;9.13;;
20034;SDS011;10178;48.034;9.800;2023-02-21T05:39:06;14.10;;;10.30;;
20034;SDS011;10178;48.034;9.800;2023-02-21T05:41:32;13.10;;;9.00;;
20034;SDS011;10178;48.034;9.800;2023-02-21T05:43:59;9.70;;;6.77;;
20034;SDS011;10178;48.034;9.800;2023-02-21T05:46:27;11.00;;;7.03;;
20034;SDS011;10178;48.034;9.800;2023-02-21T05:48:54;21.77;;;9.23;;
20034;SDS011;10178;48.034;9.800;2023-02-21T05:51:22;10.52;;;6.38;;
20034;SDS011;10178;48.034;9.800;2023-02-21T05:53:48;8.85;;;6.30;;
20034;SDS011;10178;48.034;9.800;2023-02-21T05:56:14;9.75;;;6.55;;
20034;SDS011;10178;48.034;9.800;2023-02-21T05:58:41;10.20;;;6.28;;
20034;SDS011;10178;48.034;9.800;2023-02-21T06:01:06;7.80;;;5.87;;
20034;SDS011;10178;48.034;9.800;2023-02-21T06:03:32;8.10;;;5.63;;
20034;SDS011;10178;48.034;9.800;2023-02-21T06:05:58;9.03;;;5.80;;
20034;SDS011;10178;48.034;9.800;2023-02-21T06:08:24;7.13;;;5.50;;
20034;SDS011;10178;48.034;9.800;2023-02-21T06:10:49;6.57;;;5.23;;
20034;SDS011;10178;48.034;9.800;2023-02-21T06:13:15;8.27;;;5.75;;
20034;SDS011;10178;48.034;9.800;2023-02-21T06:15:41;8.67;;;5.87;;
20034;SDS011;10178;48.034;9.800;2023-02-21T06:18:07;9.43;;;6.95;;
20034;SDS011;10178;48.034;9.800;2023-02-21T06:20:32;8.77;;;6.53;;
20034;SDS011;10178;48.034;9.800;2023-02-21T06:22:58;8.10;;;5.82;;
20034;SDS011;10178;48.034;9.800;2023-02-21T06:25:24;8.48;;;5.95;;
20034;SDS011;10178;48.034;9.800;2023-02-21T06:27:50;14.80;;;7.90;;
20034;SDS011;10178;48.034;9.800;2023-02-21T06:30:15;12.83;;;8.00;;
20034;SDS011;10178;48.034;9.800;2023-02-21T06:32:41;14.60;;;8.57;;
20034;SDS011;10178;48.034;9.800;2023-02-21T06:35:07;11.63;;;8.60;;
20034;SDS011;10178;48.034;9.800;2023-02-21T06:37:33;14.93;;;9.00;;
20034;SDS011;10178;48.034;9.800;2023-02-21T06:39:59;11.60;;;8.93;;
20034;SDS011;10178;48.034;9.800;2023-02-21T06:42:25;12.07;;;8.70;;
20034;SDS011;10178;48.034;9.800;2023-02-21T06:44:50;15.90;;;9.97;;
20034;SDS011;10178;48.034;9.800;2023-02-21T06:47:16;21.80;;;12.97;;
20034;SDS011;10178;48.034;9.800;2023-02-21T06:49:42;15.93;;;9.80;;
20034;SDS011;10178;48.034;9.800;2023-02-21T06:52:08;18.30;;;11.37;;
20034;SDS011;10178;48.034;9.800;2023-02-21T06:54:34;11.40;;;7.67;;
20034;SDS011;10178;48.034;9.800;2023-02-21T06:57:00;13.77;;;10.57;;
20034;SDS011;10178;48.034;9.800;2023-02-21T06:59:26;16.43;;;9.87;;
20034;SDS011;10178;48.034;9.800;2023-02-21T07:01:55;11.87;;;8.50;;
20034;SDS011;10178;48.034;9.800;2023-02-21T07:04:22;10.43;;;8.07;;
20034;SDS011;10178;48.034;9.800;2023-02-21T07:06:48;17.40;;;9.00;;
20034;SDS011;10178;48.034;9.800;2023-02-21T07:09:14;15.77;;;11.13;;
20034;SDS011;10178;48.034;9.800;2023-02-21T07:11:39;14.63;;;10.03;;
20034;SDS011;10178;48.034;9.800;2023-02-21T07:14:05;14.27;;;9.57;;
20034;SDS011;10178;48.034;9.800;2023-02-21T07:16:31;13.53;;;9.27;;
20034;SDS011;10178;48.034;9.800;2023-02-21T07:18:56;21.63;;;10.43;;
20034;SDS011;10178;48.034;9.800;2023-02-21T07:21:22;19.77;;;10.17;;
20034;SDS011;10178;48.034;9.800;2023-02-21T07:23:51;16.13;;;10.90;;
20034;SDS011;10178;48.034;9.800;2023-02-21T07:26:16;16.13;;;10.40;;
20034;SDS011;10178;48.034;9.800;2023-02-21T07:28:42;18.80;;;9.93;;
20034;SDS011;10178;48.034;9.800;2023-02-21T07:31:08;14.77;;;10.50;;
20034;SDS011;10178;48.034;9.800;2023-02-21T07:33:35;18.37;;;11.23;;
20034;SDS011;10178;48.034;9.800;2023-02-21T07:36:00;18.90;;;11.40;;
20034;SDS011;10178;48.034;9.800;2023-02-21T07:38:27;19.07;;;12.70;;
20034;SDS011;10178;48.034;9.800;2023-02-21T07:40:54;17.87;;;11.83;;
20034;SDS011;10178;48.034;9.800;2023-02-21T07:43:21;18.03;;;12.50;;
20034;SDS011;10178;48.034;9.800;2023-02-21T07:45:46;20.13;;;12.43;;
20034;SDS011;10178;48.034;9.800;2023-02-21T07:48:12;18.97;;;13.33;;
20034;SDS011;10178;48.034;9.800;2023-02-21T07:50:39;20.03;;;12.10;;
20034;SDS011;10178;48.034;9.800;2023-02-21T07:53:05;21.70;;;14.27;;
20034;SDS011;10178;48.034;9.800;2023-02-21T07:55:31;16.63;;;12.03;;
20034;SDS011;10178;48.034;9.800;2023-02-21T07:57:57;19.67;;;12.07;;
20034;SDS011;10178;48.034;9.800;2023-02-21T08:00:23;20.07;;;13.17;;
20034;SDS011;10178;48.034;9.800;2023-02-21T08:02:50;18.67;;;12.10;;
20034;SDS011;10178;48.034;9.800;2023-02-21T08:05:16;18.37;;;12.23;;
20034;SDS011;10178;48.034;9.800;2023-02-21T08:07:43;18.33;;;12.00;;
20034;SDS011;10178;48.034;9.800;2023-02-21T08:10:09;17.00;;;11.60;;
20034;SDS011;10178;48.034;9.800;2023-02-21T08:12:35;20.70;;;9.70;;
20034;SDS011;10178;48.034;9.800;2023-02-21T08:15:01;17.13;;;11.10;;
20034;SDS011;10178;48.034;9.800;2023-02-21T08:17:28;18.23;;;9.97;;
20034;SDS011;10178;48.034;9.800;2023-02-21T08:19:54;13.87;;;9.57;;
20034;SDS011;10178;48.034;9.800;2023-02-21T08:22:20;17.93;;;9.53;;
20034;SDS011;10178;48.034;9.800;2023-02-21T08:24:47;11.57;;;8.30;;
20034;SDS011;10178;48.034;9.800;2023-02-21T08:27:14;12.97;;;8.80;;
20034;SDS011;10178;48.034;9.800;2023-02-21T08:29:39;12.90;;;9.00;;
20034;SDS011;10178;48.034;9.800;2023-02-21T08:32:05;16.67;;;9.43;;
20034;SDS011;10178;48.034;9.800;2023-02-21T08:34:31;15.70;;;9.13;;
20034;SDS011;10178;48.034;9.800;2023-02-21T08:36:56;13.73;;;9.30;;
20034;SDS011;10178;48.034;9.800;2023-02-21T08:39:22;13.10;;;9.50;;
20034;SDS011;10178;48.034;9.800;2023-02-21T08:41:48;16.10;;;8.90;;
20034;SDS011;10178;48.034;9.800;2023-02-21T08:44:15;14.40;;;9.30;;
20034;SDS011;10178;48.034;9.800;2023-02-21T08:46:41;10.97;;;8.20;;
20034;SDS011;10178;48.034;9.800;2023-02-21T08:49:08;14.00;;;8.93;;
20034;SDS011;10178;48.034;9.800;2023-02-21T08:51:34;15.00;;;9.27;;
20034;SDS011;10178;48.034;9.800;2023-02-21T08:54:01;12.20;;;8.43;;
20034;SDS011;10178;48.034;9.800;2023-02-21T08:56:28;11.73;;;9.43;;
20034;SDS011;10178;48.034;9.800;2023-02-21T08:58:55;14.47;;;9.20;;
20034;SDS011;10178;48.034;9.800;2023-02-21T09:01:21;12.07;;;8.37;;
20034;SDS011;10178;48.034;9.800;2023-02-21T09:03:48;9.77;;;7.88;;
20034;SDS011;10178;48.034;9.800;2023-02-21T09:06:14;10.57;;;7.65;;
20034;SDS011;10178;48.034;9.800;2023-02-21T09:08:40;9.25;;;6.20;;
20034;SDS011;10178;48.034;9.800;2023-02-21T09:11:06;10.90;;;6.93;;
20034;SDS011;10178;48.034;9.800;2023-02-21T09:13:32;8.32;;;6.03;;
20034;SDS011;10178;48.034;9.800;2023-02-21T09:15:59;12.40;;;5.88;;
20034;SDS011;10178;48.034;9.800;2023-02-21T09:18:26;9.60;;;6.07;;
20034;SDS011;10178;48.034;9.800;2023-02-21T09:20:59;8.90;;;5.77;;
20034;SDS011;10178;48.034;9.800;2023-02-21T09:23:25;17.50;;;9.07;;
20034;SDS011;10178;48.034;9.800;2023-02-21T09:25:53;11.63;;;7.20;;
20034;SDS011;10178;48.034;9.800;2023-02-21T09:28:19;10.45;;;6.60;;
20034;SDS011;10178;48.034;9.800;2023-02-21T09:30:45;9.23;;;6.25;;
20034;SDS011;10178;48.034;9.800;2023-02-21T09:33:11;16.08;;;6.93;;
20034;SDS011;10178;48.034;9.800;2023-02-21T09:35:38;8.88;;;6.13;;
20034;SDS011;10178;48.034;9.800;2023-02-21T09:38:04;8.43;;;6.45;;
20034;SDS011;10178;48.034;9.800;2023-02-21T09:43:20;7.95;;;5.57;;
20034;SDS011;10178;48.034;9.800;2023-02-21T09:46:03;8.55;;;5.57;;
20034;SDS011;10178;48.034;9.800;2023-02-21T09:48:35;8.73;;;5.63;;
20034;SDS011;10178;48.034;9.800;2023-02-21T09:51:02;9.73;;;6.40;;
20034;SDS011;10178;48.034;9.800;2023-02-21T09:53:30;11.43;;;6.97;;
20034;SDS011;10178;48.034;9.800;2023-02-21T09:55:59;6.18;;;5.43;;
20034;SDS011;10178;48.034;9.800;2023-02-21T09:58:29;6.20;;;5.10;;
20034;SDS011;10178;48.034;9.800;2023-02-21T10:00:59;10.10;;;5.32;;
20034;SDS011;10178;48.034;9.800;2023-02-21T10:03:44;8.43;;;5.28;;
20034;SDS011;10178;48.034;9.800;2023-02-21T10:06:34;8.02;;;5.50;;
20034;SDS011;10178;48.034;9.800;2023-02-21T10:09:15;8.15;;;5.43;;
20034;SDS011;10178;48.034;9.800;2023-02-21T10:15:32;9.82;;;5.93;;
20034;SDS011;10178;48.034;9.800;2023-02-21T10:20:28;6.00;;;4.90;;
20034;SDS011;10178;48.034;9.800;2023-02-21T10:23:04;5.50;;;4.80;;
20034;SDS011;10178;48.034;9.800;2023-02-21T10:25:41;6.43;;;5.10;;
20034;SDS011;10178;48.034;9.800;2023-02-21T10:28:12;11.88;;;5.15;;
20034;SDS011;10178;48.034;9.800;2023-02-21T10:30:42;6.38;;;4.57;;
20034;SDS011;10178;48.034;9.800;2023-02-21T10:33:08;6.05;;;5.00;;
20034;SDS011;10178;48.034;9.800;2023-02-21T10:35:37;5.85;;;4.65;;
20034;SDS011;10178;48.034;9.800;2023-02-21T10:38:05;7.72;;;4.72;;
20034;SDS011;10178;48.034;9.800;2023-02-21T10:43:04;10.02;;;4.88;;
20034;SDS011;10178;48.034;9.800;2023-02-21T10:45:43;7.97;;;4.78;;
20034;SDS011;10178;48.034;9.800;2023-02-21T10:48:36;7.28;;;4.75;;
20034;SDS011;10178;48.034;9.800;2023-02-21T10:53:39;5.65;;;4.65;;
20034;SDS011;10178;48.034;9.800;2023-02-21T10:58:43;7.85;;;4.72;;
20034;SDS011;10178;48.034;9.800;2023-02-21T11:03:51;7.00;;;4.18;;
20034;SDS011;10178;48.034;9.800;2023-02-21T11:08:55;7.38;;;4.72;;
20034;SDS011;10178;48.034;9.800;2023-02-21T11:11:31;5.43;;;3.90;;
20034;SDS011;10178;48.034;9.800;2023-02-21T11:20:19;9.73;;;4.25;;
20034;SDS011;10178;48.034;9.800;2023-02-21T11:22:48;5.18;;;3.85;;
20034;SDS011;10178;48.034;9.800;2023-02-21T11:27:57;6.72;;;4.35;;
20034;SDS011;10178;48.034;9.800;2023-02-21T11:30:24;4.38;;;3.63;;
20034;SDS011;10178;48.034;9.800;2023-02-21T11:32:51;7.53;;;4.50;;
20034;SDS011;10178;48.034;9.800;2023-02-21T11:37:54;6.03;;;3.97;;
20034;SDS011;10178;48.034;9.800;2023-02-21T11:43:10;7.40;;;4.68;;
20034;SDS011;10178;48.034;9.800;2023-02-21T11:45:40;5.18;;;3.85;;
20034;SDS011;10178;48.034;9.800;2023-02-21T11:48:17;7.50;;;4.15;;
20034;SDS011;10178;48.034;9.800;2023-02-21T11:50:45;6.03;;;4.05;;
20034;SDS011;10178;48.034;9.800;2023-02-21T11:58:54;8.25;;;4.75;;
20034;SDS011;10178;48.034;9.800;2023-02-21T12:01:51;8.00;;;4.35;;
20034;SDS011;10178;48.034;9.800;2023-02-21T12:09:54;4.75;;;3.70;;
20034;SDS011;10178;48.034;9.800;2023-02-21T12:18:02;4.93;;;3.90;;
20034;SDS011;10178;48.034;9.800;2023-02-21T12:20:46;6.72;;;4.03;;
20034;SDS011;10178;48.034;9.800;2023-02-21T12:26:30;8.23;;;4.22;;
20034;SDS011;10178;48.034;9.800;2023-02-21T12:37:49;6.30;;;3.50;;
20034;SDS011;10178;48.034;9.800;2023-02-21T12:40:44;4.57;;;3.45;;
20034;SDS011;10178;48.034;9.800;2023-02-21T12:43:47;4.32;;;3.50;;
20034;SDS011;10178;48.034;9.800;2023-02-21T12:49:07;9.48;;;4.32;;
20034;SDS011;10178;48.034;9.800;2023-02-21T12:54:44;11.60;;;4.50;;
20034;SDS011;10178;48.034;9.800;2023-02-21T12:57:22;8.93;;;4.75;;
20034;SDS011;10178;48.034;9.800;2023-02-21T13:00:20;4.60;;;3.22;;
20034;SDS011;10178;48.034;9.800;2023-02-21T13:05:47;7.68;;;4.22;;
20034;SDS011;10178;48.034;9.800;2023-02-21T13:08:20;6.45;;;3.80;;
20034;SDS011;10178;48.034;9.800;2023-02-21T13:10:57;5.47;;;4.05;;
20034;SDS011;10178;48.034;9.800;2023-02-21T13:13:31;5.47;;;4.05;;
20034;SDS011;10178;48.034;9.800;2023-02-21T13:16:01;5.03;;;3.50;;
20034;SDS011;10178;48.034;9.800;2023-02-21T13:21:06;7.35;;;4.22;;
20034;SDS011;10178;48.034;9.800;2023-02-21T13:23:58;5.50;;;3.28;;
20034;SDS011;10178;48.034;9.800;2023-02-21T13:29:17;6.00;;;3.95;;
20034;SDS011;10178;48.034;9.800;2023-02-21T13:31:57;6.35;;;4.10;;
20034;SDS011;10178;48.034;9.800;2023-02-21T13:34:23;6.78;;;3.97;;
20034;SDS011;10178;48.034;9.800;2023-02-21T13:36:52;5.32;;;3.95;;
20034;SDS011;10178;48.034;9.800;2023-02-21T13:39:27;8.77;;;3.97;;
20034;SDS011;10178;48.034;9.800;2023-02-21T13:42:05;8.25;;;3.80;;
20034;SDS011;10178;48.034;9.800;2023-02-21T13:44:38;7.50;;;4.00;;
20034;SDS011;10178;48.034;9.800;2023-02-21T13:47:10;4.40;;;3.55;;
20034;SDS011;10178;48.034;9.800;2023-02-21T14:21:28;5.45;;;3.63;;
20034;SDS011;10178;48.034;9.800;2023-02-21T14:23:58;6.60;;;3.70;;
20034;SDS011;10178;48.034;9.800;2023-02-21T14:37:13;4.95;;;2.90;;
20034;SDS011;10178;48.034;9.800;2023-02-21T14:40:00;3.50;;;2.95;;
20034;SDS011;10178;48.034;9.800;2023-02-21T14:53:45;9.18;;;3.28;;
20034;SDS011;10178;48.034;9.800;2023-02-21T15:12:48;8.02;;;2.90;;
20034;SDS011;10178;48.034;9.800;2023-02-21T15:15:16;6.68;;;2.78;;
20034;SDS011;10178;48.034;9.800;2023-02-21T15:18:11;3.72;;;2.50;;
20034;SDS011;10178;48.034;9.800;2023-02-21T15:21:04;6.70;;;2.60;;
20034;SDS011;10178;48.034;9.800;2023-02-21T15:23:36;2.92;;;2.40;;
20034;SDS011;10178;48.034;9.800;2023-02-21T15:26:20;4.18;;;2.30;;
20034;SDS011;10178;48.034;9.800;2023-02-21T15:31:31;7.53;;;2.65;;
20034;SDS011;10178;48.034;9.800;2023-02-21T15:34:18;4.88;;;2.35;;
20034;SDS011;10178;48.034;9.800;2023-02-21T15:36:46;4.38;;;2.40;;
20034;SDS011;10178;48.034;9.800;2023-02-21T15:39:23;3.25;;;2.30;;
20034;SDS011;10178;48.034;9.800;2023-02-21T15:42:02;5.35;;;2.35;;
20034;SDS011;10178;48.034;9.800;2023-02-21T15:44:41;3.83;;;2.03;;
20034;SDS011;10178;48.034;9.800;2023-02-21T15:47:12;2.92;;;2.08;;
20034;SDS011;10178;48.034;9.800;2023-02-21T15:49:57;3.35;;;2.00;;
20034;SDS011;10178;48.034;9.800;2023-02-21T15:57:57;3.88;;;1.90;;
20034;SDS011;10178;48.034;9.800;2023-02-21T16:00:26;5.05;;;1.92;;
20034;SDS011;10178;48.034;9.800;2023-02-21T16:03:24;3.90;;;1.92;;
20034;SDS011;10178;48.034;9.800;2023-02-21T16:05:50;4.95;;;1.88;;
20034;SDS011;10178;48.034;9.800;2023-02-21T16:08:20;2.25;;;1.80;;
20034;SDS011;10178;48.034;9.800;2023-02-21T16:10:46;3.05;;;1.77;;
20034;SDS011;10178;48.034;9.800;2023-02-21T16:13:12;3.33;;;1.48;;
20034;SDS011;10178;48.034;9.800;2023-02-21T16:15:39;3.63;;;1.85;;
20034;SDS011;10178;48.034;9.800;2023-02-21T16:18:07;2.40;;;1.65;;
20034;SDS011;10178;48.034;9.800;2023-02-21T16:20:35;2.97;;;1.95;;
20034;SDS011;10178;48.034;9.800;2023-02-21T16:28:24;8.43;;;4.05;;
20034;SDS011;10178;48.034;9.800;2023-02-21T16:30:51;6.68;;;4.15;;
20034;SDS011;10178;48.034;9.800;2023-02-21T16:33:17;4.95;;;3.03;;
20034;SDS011;10178;48.034;9.800;2023-02-21T16:35:43;7.18;;;3.08;;
20034;SDS011;10178;48.034;9.800;2023-02-21T16:38:22;4.55;;;2.28;;
20034;SDS011;10178;48.034;9.800;2023-02-21T16:41:17;3.10;;;2.65;;
20034;SDS011;10178;48.034;9.800;2023-02-21T16:43:47;4.95;;;2.90;;
20034;SDS011;10178;48.034;9.800;2023-02-21T16:46:14;5.95;;;2.15;;
20034;SDS011;10178;48.034;9.800;2023-02-21T16:48:41;4.25;;;2.40;;
20034;SDS011;10178;48.034;9.800;2023-02-21T16:51:09;3.25;;;2.05;;
20034;SDS011;10178;48.034;9.800;2023-02-21T16:53:40;3.53;;;2.58;;
20034;SDS011;10178;48.034;9.800;2023-02-21T16:56:06;7.78;;;2.20;;
20034;SDS011;10178;48.034;9.800;2023-02-21T16:58:37;5.10;;;2.10;;
20034;SDS011;10178;48.034;9.800;2023-02-21T17:01:24;6.40;;;2.58;;
20034;SDS011;10178;48.034;9.800;2023-02-21T17:03:53;2.30;;;1.88;;
20034;SDS011;10178;48.034;9.800;2023-02-21T17:06:21;4.22;;;2.65;;
20034;SDS011;10178;48.034;9.800;2023-02-21T17:08:50;6.22;;;3.75;;
20034;SDS011;10178;48.034;9.800;2023-02-21T17:11:16;9.70;;;4.82;;
20034;SDS011;10178;48.034;9.800;2023-02-21T17:13:42;8.80;;;4.90;;
20034;SDS011;10178;48.034;9.800;2023-02-21T17:16:08;4.20;;;2.53;;
20034;SDS011;10178;48.034;9.800;2023-02-21T17:18:34;6.03;;;2.78;;
20034;SDS011;10178;48.034;9.800;2023-02-21T17:20:59;5.13;;;2.17;;
20034;SDS011;10178;48.034;9.800;2023-02-21T17:23:26;3.13;;;2.22;;
20034;SDS011;10178;48.034;9.800;2023-02-21T17:25:52;6.20;;;3.10;;
20034;SDS011;10178;48.034;9.800;2023-02-21T17:28:18;8.73;;;5.63;;
20034;SDS011;10178;48.034;9.800;2023-02-21T17:30:43;6.55;;;3.22;;
20034;SDS011;10178;48.034;9.800;2023-02-21T17:33:09;9.00;;;4.35;;
20034;SDS011;10178;48.034;9.800;2023-02-21T17:35:35;8.68;;;4.70;;
20034;SDS011;10178;48.034;9.800;2023-02-21T17:38:02;11.02;;;5.70;;
20034;SDS011;10178;48.034;9.800;2023-02-21T17:40:28;12.80;;;5.93;;
20034;SDS011;10178;48.034;9.800;2023-02-21T17:42:57;10.95;;;5.88;;
20034;SDS011;10178;48.034;9.800;2023-02-21T17:45:23;10.85;;;5.95;;
20034;SDS011;10178;48.034;9.800;2023-02-21T17:47:50;10.93;;;6.18;;
20034;SDS011;10178;48.034;9.800;2023-02-21T17:50:18;12.10;;;6.38;;
20034;SDS011;10178;48.034;9.800;2023-02-21T17:52:51;9.55;;;5.80;;
20034;SDS011;10178;48.034;9.800;2023-02-21T17:55:18;11.18;;;6.65;;
20034;SDS011;10178;48.034;9.800;2023-02-21T17:57:45;9.48;;;5.97;;
20034;SDS011;10178;48.034;9.800;2023-02-21T18:00:16;9.45;;;6.03;;
20034;SDS011;10178;48.034;9.800;2023-02-21T18:02:45;8.35;;;5.25;;
20034;SDS011;10178;48.034;9.800;2023-02-21T18:05:12;14.65;;;6.97;;
20034;SDS011;10178;48.034;9.800;2023-02-21T18:07:37;8.93;;;5.72;;
20034;SDS011;10178;48.034;9.800;2023-02-21T18:10:03;10.13;;;6.07;;
20034;SDS011;10178;48.034;9.800;2023-02-21T18:12:30;10.68;;;6.03;;
20034;SDS011;10178;48.034;9.800;2023-02-21T18:14:57;10.13;;;5.65;;
20034;SDS011;10178;48.034;9.800;2023-02-21T18:17:23;9.05;;;5.93;;
20034;SDS011;10178;48.034;9.800;2023-02-21T18:19:49;10.25;;;6.03;;
20034;SDS011;10178;48.034;9.800;2023-02-21T18:22:15;8.63;;;5.63;;
20034;SDS011;10178;48.034;9.800;2023-02-21T18:24:40;8.82;;;6.05;;
20034;SDS011;10178;48.034;9.800;2023-02-21T18:27:06;9.27;;;5.88;;